Time;durP1;ratioP1;P1;durP2;ratioP2;P2;SDS_P1;SDS_P2;PMS_P1;PMS_P2;Temp;Humidity;BMP_temperature;BMP_pressure;BME280_temperature;BME280_humidity;BME280_pressure;Samples;Min_cycle;Max_cycle;Signal;HPM_P1;HPM_P2
2022/04/02 00:02:13;;;;;;;;;;;0.50;99.90;;;;;;2091345;68;20732;-80
2022/04/02 00:04:55;;;;;;;;;;;0.60;99.90;;;;;;2088259;68;20061;-80
2022/04/02 00:07:39;;;;;;;;;;;0.60;99.90;;;;;;2096165;68;20143;-79
2022/04/02 00:10:21;;;;;;;;;;;0.60;99.90;;;;;;2100980;68;20520;-80
2022/04/02 00:13:03;;;;;;;;;;;0.60;99.90;;;;;;2111438;67;20196;-79
2022/04/02 00:15:45;;;;;;;;;;;0.60;99.90;;;;;;2140883;67;20075;-80
2022/04/02 00:18:27;;;;;;;;;;;0.60;99.90;;;;;;2150195;66;20161;-80
2022/04/02 00:21:09;;;;;;;;;;;0.60;99.90;;;;;;2140390;66;20587;-81
2022/04/02 00:23:51;;;;;;;;;;;0.60;99.90;;;;;;2132322;67;20611;-80
2022/04/02 00:26:33;;;;;;;;;;;0.60;99.90;;;;;;2109821;67;20091;-80
2022/04/02 00:29:15;;;;;;;;;;;0.70;99.90;;;;;;2103766;68;20062;-80
2022/04/02 00:31:57;;;;;;;;;;;0.70;99.90;;;;;;2103412;68;20836;-81
2022/04/02 00:34:38;;;;;;;;;;;0.70;99.90;;;;;;2096832;68;20661;-79
2022/04/02 00:37:23;;;;;;;;;;;0.60;99.90;;;;;;2109870;67;20055;-81
2022/04/02 00:40:07;;;;;;;;;;;0.70;99.90;;;;;;2113792;67;20079;-80
2022/04/02 00:42:49;;;;;;;;;;;0.60;99.90;;;;;;2097472;68;20059;-80
2022/04/02 00:45:32;;;;;;;;;;;0.60;99.90;;;;;;2106355;67;20600;-80
2022/04/02 00:48:21;;;;;;;;;;;0.90;99.90;;;;;;2102050;67;20250;-80
2022/04/02 00:51:06;;;;;;;;;;;0.70;99.90;;;;;;2125470;67;20140;-80
2022/04/02 00:53:48;;;;;;;;;;;1.30;99.90;;;;;;2130344;67;20155;-81
2022/04/02 00:56:30;;;;;;;;;;;0.70;99.90;;;;;;2128531;67;20523;-79
2022/04/02 00:59:12;;;;;;;;;;;0.70;99.90;;;;;;2132913;67;20236;-79
2022/04/02 01:01:53;;;;;;;;;;;0.70;99.90;;;;;;2136843;67;20107;-80
2022/04/02 01:04:35;;;;;;;;;;;0.70;99.90;;;;;;2147494;66;20129;-80
2022/04/02 01:07:17;;;;;;;;;;;0.70;99.90;;;;;;2142201;66;20676;-80
2022/04/02 01:09:59;;;;;;;;;;;0.80;99.90;;;;;;2140662;66;20563;-80
2022/04/02 01:12:43;;;;;;;;;;;0.50;99.90;;;;;;2141696;66;20548;-80
2022/04/02 01:15:25;;;;;;;;;;;0.70;99.90;;;;;;2144413;66;20532;-80
2022/04/02 01:18:11;;;;;;;;;;;0.60;99.90;;;;;;2134282;67;20059;-81
2022/04/02 01:20:55;;;;;;;;;;;0.60;99.90;;;;;;2129008;67;20064;-81
2022/04/02 01:23:36;;;;;;;;;;;-0.20;99.90;;;;;;2122405;67;20565;-79
2022/04/02 01:26:19;;;;;;;;;;;0.60;99.90;;;;;;2126101;67;20580;-79
2022/04/02 01:29:02;;;;;;;;;;;0.60;99.90;;;;;;2105530;68;20211;-79
2022/04/02 01:31:46;;;;;;;;;;;0.50;99.90;;;;;;2118729;67;20118;-79
2022/04/02 01:34:28;;;;;;;;;;;0.50;99.90;;;;;;2121619;67;20658;-79
2022/04/02 01:37:15;;;;;;;;;;;0.50;99.90;;;;;;2113218;67;20070;-80
2022/04/02 01:39:57;;;;;;;;;;;0.50;99.90;;;;;;2118329;67;20066;-80
2022/04/02 01:42:39;;;;;;;;;;;0.40;99.90;;;;;;2099705;68;20113;-80
2022/04/02 01:45:22;;;;;;;;;;;0.40;99.90;;;;;;2100402;67;20080;-79
2022/04/02 01:48:07;;;;;;;;;;;0.40;99.90;;;;;;2104439;67;20059;-79
2022/04/02 01:50:48;;;;;;;;;;;0.30;99.90;;;;;;2105259;68;20259;-79
2022/04/02 01:53:31;;;;;;;;;;;0.20;99.90;;;;;;2105898;67;20079;-81
2022/04/02 01:56:13;;;;;;;;;;;1.20;99.90;;;;;;2114084;67;20261;-79
2022/04/02 01:58:57;;;;;;;;;;;0.70;99.90;;;;;;2120649;67;20243;-79
2022/04/02 02:01:42;;;;;;;;;;;0.30;99.90;;;;;;2121186;67;20213;-80
2022/04/02 02:04:24;;;;;;;;;;;0.30;99.90;;;;;;2104592;68;20380;-79
2022/04/02 02:07:06;;;;;;;;;;;0.30;99.90;;;;;;2089793;68;20143;-79
2022/04/02 02:09:53;;;;;;;;;;;0.30;99.90;;;;;;2087564;68;20068;-80
2022/04/02 02:12:40;;;;;;;;;;;0.30;99.90;;;;;;2098439;67;20204;-80
2022/04/02 02:15:22;;;;;;;;;;;0.30;99.90;;;;;;2112862;67;20211;-80
2022/04/02 02:18:03;;;;;;;;;;;0.40;99.90;;;;;;2105586;67;20131;-79
2022/04/02 02:20:44;;;;;;;;;;;0.30;99.90;;;;;;1885824;67;15830780;-80
2022/04/02 02:23:27;;;;;;;;;;;0.30;99.90;;;;;;2120621;67;20178;-80
2022/04/02 02:26:12;;;;;;;;;;;0.90;99.90;;;;;;2112042;67;20113;-79
2022/04/02 02:28:56;;;;;;;;;;;0.30;99.90;;;;;;2109515;67;20138;-80
2022/04/02 02:31:43;;;;;;;;;;;1.00;99.90;;;;;;2106295;68;20691;-79
2022/04/02 02:37:27;;;;;;;;;;;0.20;99.90;;;;;;2108587;67;20219;-80
2022/04/02 02:40:10;;;;;;;;;;;0.10;99.90;;;;;;2107950;67;20276;-80
2022/04/02 02:42:52;;;;;;;;;;;0.10;99.90;;;;;;2097034;68;20161;-80
2022/04/02 02:45:33;;;;;;;;;;;0.00;99.90;;;;;;2078292;68;20289;-80
2022/04/02 02:48:18;;;;;;;;;;;0.00;99.90;;;;;;2089385;68;20099;-80
2022/04/02 02:51:00;;;;;;;;;;;-0.10;99.90;;;;;;2094980;68;20122;-80
2022/04/02 02:53:44;;;;;;;;;;;-0.10;99.90;;;;;;2097155;67;20210;-81
2022/04/02 02:56:27;;;;;;;;;;;-0.20;99.90;;;;;;2106619;67;20085;-80
2022/04/02 02:59:18;;;;;;;;;;;-0.20;99.90;;;;;;2107277;67;20655;-80
2022/04/02 03:02:03;;;;;;;;;;;-0.10;99.90;;;;;;2114041;67;20082;-80
2022/04/02 03:04:45;;;;;;;;;;;-0.40;99.90;;;;;;2118381;67;20077;-81
2022/04/02 03:07:34;;;;;;;;;;;-0.40;99.90;;;;;;2115324;67;20095;-80
2022/04/02 03:10:17;;;;;;;;;;;-0.40;99.90;;;;;;2128783;67;20252;-80
2022/04/02 03:12:59;;;;;;;;;;;-0.50;99.90;;;;;;2128361;67;20138;-80
2022/04/02 03:15:43;;;;;;;;;;;-0.50;99.90;;;;;;2128342;67;20200;-80
2022/04/02 03:18:25;;;;;;;;;;;-0.60;99.90;;;;;;2132300;67;20073;-80
2022/04/02 03:21:06;;;;;;;;;;;-0.60;99.90;;;;;;2138789;66;20076;-81
2022/04/02 03:23:48;;;;;;;;;;;-0.60;99.90;;;;;;2134430;67;20632;-80
2022/04/02 03:26:29;;;;;;;;;;;-0.70;99.90;;;;;;2120127;67;20193;-80
2022/04/02 03:29:11;;;;;;;;;;;-0.70;99.90;;;;;;2112062;67;20264;-79
2022/04/02 03:31:54;;;;;;;;;;;-0.70;99.90;;;;;;2127107;67;20446;-80
2022/04/02 03:34:39;;;;;;;;;;;-0.70;99.90;;;;;;2133618;67;20106;-79
2022/04/02 03:37:22;;;;;;;;;;;-0.70;99.90;;;;;;2141339;67;20226;-80
2022/04/02 03:40:09;;;;;;;;;;;-0.70;99.90;;;;;;2139646;67;20195;-80
2022/04/02 03:42:50;;;;;;;;;;;-0.80;99.90;;;;;;2132347;67;20564;-80
2022/04/02 03:45:32;;;;;;;;;;;-0.80;99.90;;;;;;2128031;67;20735;-80
2022/04/02 03:48:13;;;;;;;;;;;-0.80;99.90;;;;;;2138820;67;20610;-80
2022/04/02 03:50:55;;;;;;;;;;;-0.60;99.90;;;;;;2132190;67;20136;-79
2022/04/02 03:53:36;;;;;;;;;;;-0.80;99.90;;;;;;2132206;67;20085;-80
2022/04/02 03:56:18;;;;;;;;;;;-0.80;99.90;;;;;;2137832;66;20220;-80
2022/04/02 03:59:00;;;;;;;;;;;-0.80;99.90;;;;;;2148759;66;20093;-79
2022/04/02 04:01:44;;;;;;;;;;;-0.80;99.90;;;;;;2152754;66;20189;-81
2022/04/02 04:04:26;;;;;;;;;;;-0.80;99.90;;;;;;2140556;66;20141;-80
2022/04/02 04:07:08;;;;;;;;;;;-0.80;99.90;;;;;;2143197;66;20320;-79
2022/04/02 04:09:51;;;;;;;;;;;-0.90;99.90;;;;;;2128212;67;20077;-80
2022/04/02 04:12:38;;;;;;;;;;;-0.90;99.90;;;;;;2119966;67;20083;-80
2022/04/02 04:15:20;;;;;;;;;;;-0.80;99.90;;;;;;2118954;67;20080;-80
2022/04/02 04:18:01;;;;;;;;;;;-0.90;99.90;;;;;;2113995;67;20150;-80
2022/04/02 04:20:43;;;;;;;;;;;-1.00;99.90;;;;;;2136053;67;20108;-80
2022/04/02 04:23:29;;;;;;;;;;;-1.00;99.90;;;;;;2124592;67;20743;-80
2022/04/02 04:26:13;;;;;;;;;;;-0.70;99.90;;;;;;2117395;67;20190;-79
2022/04/02 04:28:54;;;;;;;;;;;-1.00;99.90;;;;;;2119980;67;20076;-79
2022/04/02 04:31:38;;;;;;;;;;;-1.00;99.90;;;;;;2127665;67;20074;-80
2022/04/02 04:34:23;;;;;;;;;;;-1.00;99.90;;;;;;2131923;67;20213;-80
2022/04/02 04:37:07;;;;;;;;;;;-1.00;99.90;;;;;;2129359;67;20576;-80
2022/04/02 04:39:49;;;;;;;;;;;-0.90;99.90;;;;;;2132325;67;20132;-80
2022/04/02 04:42:31;;;;;;;;;;;-0.90;99.90;;;;;;2142046;66;20079;-80
2022/04/02 04:45:13;;;;;;;;;;;-0.80;99.90;;;;;;2126609;67;20060;-79
2022/04/02 04:47:59;;;;;;;;;;;-0.60;99.90;;;;;;2128857;67;20134;-81
2022/04/02 04:50:41;;;;;;;;;;;-0.40;99.90;;;;;;2139383;66;20143;-79
2022/04/02 04:53:31;;;;;;;;;;;-0.20;99.90;;;;;;2114163;67;20224;-79
2022/04/02 04:56:15;;;;;;;;;;;-0.10;99.90;;;;;;2116809;67;20135;-79
2022/04/02 04:58:57;;;;;;;;;;;0.10;99.90;;;;;;2125983;67;20056;-79
2022/04/02 05:01:43;;;;;;;;;;;0.30;99.90;;;;;;2121756;67;20168;-79
2022/04/02 05:04:27;;;;;;;;;;;0.40;99.90;;;;;;2126161;67;20157;-79
2022/04/02 05:07:12;;;;;;;;;;;0.50;99.90;;;;;;2128195;67;20073;-80
2022/04/02 05:09:55;;;;;;;;;;;0.60;99.90;;;;;;2146534;66;20547;-79
2022/04/02 05:12:39;;;;;;;;;;;0.70;99.90;;;;;;2139028;67;20233;-78
2022/04/02 05:15:36;;;;;;;;;;;0.70;99.90;;;;;;2134203;67;20138;-82
2022/04/02 05:18:40;;;;;;;;;;;0.60;99.90;;;;;;2134283;67;20059;-81
2022/04/02 05:21:22;;;;;;;;;;;0.70;99.90;;;;;;2133173;67;20206;-80
2022/04/02 05:24:04;;;;;;;;;;;0.70;99.90;;;;;;2147224;66;20221;-80
2022/04/02 05:26:47;;;;;;;;;;;0.70;99.90;;;;;;2133787;67;20622;-79
2022/04/02 05:29:31;;;;;;;;;;;0.70;99.90;;;;;;2136512;67;20109;-79
2022/04/02 05:32:13;;;;;;;;;;;0.70;99.90;;;;;;2152338;66;20061;-79
2022/04/02 05:34:56;;;;;;;;;;;0.70;99.90;;;;;;2155775;66;20203;-79
2022/04/02 05:37:44;;;;;;;;;;;0.60;99.90;;;;;;2154664;66;20251;-80
2022/04/02 05:40:26;;;;;;;;;;;0.60;99.90;;;;;;2149618;66;20126;-80
2022/04/02 05:43:27;;;;;;;;;;;0.60;99.90;;;;;;2143995;66;20232;-80
2022/04/02 05:46:14;;;;;;;;;;;0.60;99.90;;;;;;2141720;66;20216;-79
2022/04/02 05:48:58;;;;;;;;;;;0.70;99.90;;;;;;2154962;66;20194;-79
2022/04/02 05:52:02;;;;;;;;;;;0.80;99.90;;;;;;2134549;67;20194;-80
2022/04/02 05:54:43;;;;;;;;;;;1.00;99.90;;;;;;2126227;67;20558;-80
2022/04/02 05:57:26;;;;;;;;;;;1.10;99.90;;;;;;2125401;67;20727;-80
2022/04/02 06:00:11;;;;;;;;;;;1.20;99.90;;;;;;2126778;67;20196;-80
2022/04/02 06:02:54;;;;;;;;;;;1.20;99.90;;;;;;2120963;67;20212;-80
2022/04/02 06:05:38;;;;;;;;;;;1.30;99.90;;;;;;2106016;67;20242;-79
2022/04/02 06:08:20;;;;;;;;;;;1.50;99.90;;;;;;2093102;68;20080;-79
2022/04/02 06:11:01;;;;;;;;;;;1.50;99.90;;;;;;2104644;68;20316;-80
2022/04/02 06:13:43;;;;;;;;;;;1.60;99.90;;;;;;2105166;68;20258;-80
2022/04/02 06:16:25;;;;;;;;;;;2.00;99.90;;;;;;2107094;67;20242;-80
2022/04/02 06:19:10;;;;;;;;;;;1.70;99.90;;;;;;2125896;67;20482;-80
2022/04/02 06:21:55;;;;;;;;;;;1.80;99.90;;;;;;2119487;67;20109;-80
2022/04/02 06:24:37;;;;;;;;;;;1.90;99.90;;;;;;2113348;67;20134;-79
2022/04/02 06:27:18;;;;;;;;;;;2.00;99.90;;;;;;2119825;67;20049;-79
2022/04/02 06:29:59;;;;;;;;;;;2.00;99.90;;;;;;2131130;67;20617;-79
2022/04/02 06:32:41;;;;;;;;;;;2.10;99.90;;;;;;2123945;67;20304;-79
2022/04/02 06:35:23;;;;;;;;;;;2.20;99.90;;;;;;2118915;67;20291;-80
2022/04/02 06:38:04;;;;;;;;;;;2.20;99.90;;;;;;2108154;67;20150;-79
2022/04/02 06:40:47;;;;;;;;;;;2.30;99.90;;;;;;2105260;68;20207;-79
2022/04/02 06:43:31;;;;;;;;;;;2.30;99.90;;;;;;2106578;68;20250;-79
2022/04/02 06:46:16;;;;;;;;;;;2.30;99.90;;;;;;2104499;68;20770;-80
2022/04/02 06:48:57;;;;;;;;;;;2.40;99.90;;;;;;2096862;68;20200;-79
2022/04/02 06:51:39;;;;;;;;;;;2.50;99.90;;;;;;2083455;68;20362;-79
2022/04/02 06:54:21;;;;;;;;;;;2.60;99.90;;;;;;2097339;68;20127;-79
2022/04/02 06:57:02;;;;;;;;;;;2.90;99.90;;;;;;2098719;68;20139;-79
2022/04/02 06:59:45;;;;;;;;;;;2.80;99.90;;;;;;2106250;67;20509;-79
2022/04/02 07:02:29;;;;;;;;;;;3.00;99.90;;;;;;2104492;67;20074;-79
2022/04/02 07:05:12;;;;;;;;;;;3.00;99.90;;;;;;2118584;67;20280;-79
2022/04/02 07:08:00;;;;;;;;;;;3.00;99.90;;;;;;2107794;67;20199;-79
2022/04/02 07:10:45;;;;;;;;;;;3.00;99.90;;;;;;2118177;67;20153;-79
2022/04/02 07:13:30;;;;;;;;;;;3.00;99.90;;;;;;2114365;67;20215;-78
2022/04/02 07:16:11;;;;;;;;;;;2.90;99.90;;;;;;2110245;67;20369;-79
2022/04/02 07:18:53;;;;;;;;;;;2.90;99.90;;;;;;2109079;67;20069;-78
2022/04/02 07:21:35;;;;;;;;;;;2.80;99.90;;;;;;2117544;67;20057;-79
2022/04/02 07:24:18;;;;;;;;;;;2.70;99.90;;;;;;2125320;67;20048;-78
2022/04/02 07:27:00;;;;;;;;;;;2.60;99.90;;;;;;2120378;67;20699;-78
2022/04/02 07:29:42;;;;;;;;;;;2.60;99.90;;;;;;2118441;67;20181;-78
2022/04/02 07:32:23;;;;;;;;;;;2.50;99.90;;;;;;2118485;67;20763;-80
2022/04/02 07:35:06;;;;;;;;;;;2.40;99.90;;;;;;2104196;67;20068;-79
2022/04/02 07:37:47;;;;;;;;;;;2.40;99.90;;;;;;2103260;67;20185;-78
2022/04/02 07:40:30;;;;;;;;;;;2.40;99.90;;;;;;2092866;68;20142;-79
2022/04/02 07:43:29;;;;;;;;;;;3.30;99.90;;;;;;2104178;68;20713;-79
2022/04/02 07:46:18;;;;;;;;;;;2.60;99.90;;;;;;2105601;67;20117;-79
2022/04/02 07:49:03;;;;;;;;;;;2.60;99.90;;;;;;2101520;68;20051;-78
2022/04/02 07:51:50;;;;;;;;;;;2.60;99.90;;;;;;2109507;67;20688;-78
2022/04/02 07:54:37;;;;;;;;;;;2.70;99.90;;;;;;2104265;67;20297;-79
2022/04/02 07:57:28;;;;;;;;;;;2.80;99.90;;;;;;2100231;67;20075;-80
2022/04/02 08:00:14;;;;;;;;;;;2.90;99.90;;;;;;2104825;67;20291;-79
2022/04/02 08:02:56;;;;;;;;;;;3.20;99.90;;;;;;2119987;67;20245;-79
2022/04/02 08:05:40;;;;;;;;;;;3.40;99.90;;;;;;2123093;67;20071;-80
2022/04/02 08:08:26;;;;;;;;;;;3.60;99.90;;;;;;2129544;67;20204;-78
2022/04/02 08:11:12;;;;;;;;;;;3.70;99.90;;;;;;2121962;67;20247;-79
2022/04/02 08:13:55;;;;;;;;;;;3.80;99.90;;;;;;2136940;66;20204;-79
2022/04/02 08:16:43;;;;;;;;;;;3.90;99.90;;;;;;2138364;66;20220;-78
2022/04/02 08:19:24;;;;;;;;;;;4.00;99.90;;;;;;2136736;67;20138;-78
2022/04/02 08:22:06;;;;;;;;;;;4.10;99.90;;;;;;2148063;66;20570;-79
2022/04/02 08:24:48;;;;;;;;;;;4.10;99.90;;;;;;2132901;67;20077;-80
2022/04/02 08:27:47;;;;;;;;;;;4.20;99.90;;;;;;2131698;67;20071;-80
2022/04/02 08:30:48;;;;;;;;;;;4.20;99.90;;;;;;2110491;67;20203;-79
2022/04/02 08:33:36;;;;;;;;;;;4.30;99.90;;;;;;2124095;67;20261;-81
2022/04/02 08:36:24;;;;;;;;;;;4.30;99.90;;;;;;2125096;67;20196;-79
2022/04/02 08:39:12;;;;;;;;;;;4.30;99.90;;;;;;2118632;67;20074;-78
2022/04/02 08:42:25;;;;;;;;;;;4.30;99.90;;;;;;2116007;67;20144;-79
2022/04/02 08:45:14;;;;;;;;;;;4.30;99.90;;;;;;2088897;68;20095;-80
2022/04/02 08:48:13;;;;;;;;;;;4.40;99.90;;;;;;2097885;67;20291;-79
2022/04/02 08:51:03;;;;;;;;;;;4.40;99.80;;;;;;2111890;67;20065;-79
2022/04/02 08:54:17;;;;;;;;;;;4.50;99.60;;;;;;2113685;67;20270;-79
2022/04/02 08:57:02;;;;;;;;;;;4.60;99.80;;;;;;2088875;68;20064;-77
2022/04/02 08:59:55;;;;;;;;;;;5.00;98.50;;;;;;2083016;68;20171;-77
2022/04/02 09:02:49;;;;;;;;;;;5.00;99.30;;;;;;2087263;68;20081;-79
2022/04/02 09:05:30;;;;;;;;;;;5.20;98.00;;;;;;2072301;68;20943;-79
2022/04/02 09:08:18;;;;;;;;;;;5.50;96.40;;;;;;2091375;68;20194;-78
2022/04/02 09:11:05;;;;;;;;;;;5.60;94.00;;;;;;2103253;67;20078;-79
2022/04/02 09:13:59;;;;;;;;;;;5.60;90.70;;;;;;2099796;68;20136;-78
2022/04/02 09:16:49;;;;;;;;;;;5.50;90.60;;;;;;2100905;67;20168;-79
2022/04/02 09:19:57;;;;;;;;;;;5.40;90.40;;;;;;2113417;66;20065;-80
2022/04/02 09:22:46;;;;;;;;;;;5.40;92.10;;;;;;2124458;67;20159;-77
2022/04/02 09:25:51;;;;;;;;;;;5.40;91.10;;;;;;2134404;67;20210;-80
2022/04/02 09:28:52;;;;;;;;;;;5.30;91.80;;;;;;2120987;67;20057;-79
2022/04/02 09:31:43;;;;;;;;;;;5.40;92.90;;;;;;2120515;67;20072;-78
2022/04/02 09:34:21;;;;;;;;;;;5.60;92.50;;;;;;2126229;67;20742;-79
2022/04/02 09:37:08;;;;;;;;;;;5.60;87.60;;;;;;2137904;66;20064;-78
2022/04/02 09:40:01;;;;;;;;;;;5.60;89.90;;;;;;2143179;66;20067;-78
2022/04/02 09:42:47;;;;;;;;;;;5.60;90.20;;;;;;2158909;66;20141;-80
2022/04/02 09:45:27;;;;;;;;;;;5.60;90.70;;;;;;2168313;65;20128;-78
2022/04/02 09:48:18;;;;;;;;;;;5.60;86.80;;;;;;2165777;66;20074;-79
2022/04/02 09:50:57;;;;;;;;;;;5.60;88.80;;;;;;2165881;65;20226;-79
2022/04/02 09:53:35;;;;;;;;;;;5.70;87.10;;;;;;2171803;65;20235;-79
2022/04/02 09:56:25;;;;;;;;;;;6.00;89.40;;;;;;2171147;65;20108;-81
2022/04/02 09:59:21;;;;;;;;;;;6.00;87.10;;;;;;2170988;65;20111;-79
2022/04/02 10:02:07;;;;;;;;;;;6.20;78.90;;;;;;2149932;66;20113;-78
2022/04/02 10:05:05;;;;;;;;;;;6.30;83.60;;;;;;2155987;66;20125;-79
2022/04/02 10:07:53;;;;;;;;;;;6.50;85.00;;;;;;2160141;66;20096;-79
2022/04/02 10:10:46;;;;;;;;;;;6.70;82.50;;;;;;2155454;66;20054;-79
2022/04/02 10:13:31;;;;;;;;;;;6.90;83.70;;;;;;2155053;66;20416;-80
2022/04/02 10:16:14;;;;;;;;;;;7.00;80.10;;;;;;2148814;66;20699;-80
2022/04/02 10:18:58;;;;;;;;;;;7.00;82.50;;;;;;2141407;66;20090;-80
2022/04/02 10:21:46;;;;;;;;;;;7.00;84.60;;;;;;2134968;67;20181;-79
2022/04/02 10:24:32;;;;;;;;;;;7.20;79.10;;;;;;2139256;67;20051;-81
2022/04/02 10:27:19;;;;;;;;;;;7.30;78.00;;;;;;2136571;67;20144;-80
2022/04/02 10:30:23;;;;;;;;;;;7.40;74.60;;;;;;2125502;67;20191;-80
2022/04/02 10:33:26;;;;;;;;;;;7.60;71.60;;;;;;2119669;67;20060;-80
2022/04/02 10:36:10;;;;;;;;;;;7.80;74.10;;;;;;2119640;67;20243;-80
2022/04/02 10:38:52;;;;;;;;;;;7.80;72.90;;;;;;2107231;67;20215;-80
2022/04/02 10:41:38;;;;;;;;;;;7.90;73.90;;;;;;2127232;67;20080;-80
2022/04/02 10:44:27;;;;;;;;;;;8.00;75.10;;;;;;2119107;67;20492;-78
2022/04/02 10:47:11;;;;;;;;;;;8.30;75.20;;;;;;2126281;67;20281;-79
2022/04/02 10:49:56;;;;;;;;;;;8.30;73.70;;;;;;2133186;67;20185;-80
2022/04/02 10:52:41;;;;;;;;;;;8.30;73.30;;;;;;2133919;66;20073;-80
2022/04/02 10:55:22;;;;;;;;;;;8.40;72.30;;;;;;2126215;67;20675;-80
2022/04/02 10:58:09;;;;;;;;;;;8.70;71.00;;;;;;2131327;67;20101;-79
2022/04/02 11:00:56;;;;;;;;;;;9.30;66.30;;;;;;2118199;67;20614;-80
2022/04/02 11:03:40;;;;;;;;;;;9.70;66.40;;;;;;2128568;67;20119;-80
2022/04/02 11:06:43;;;;;;;;;;;10.10;66.10;;;;;;2146452;66;20255;-80
2022/04/02 11:09:27;;;;;;;;;;;10.40;69.50;;;;;;2143360;66;20110;-81
2022/04/02 11:12:15;;;;;;;;;;;10.40;65.00;;;;;;2144602;66;20185;-79
2022/04/02 11:15:08;;;;;;;;;;;10.30;65.60;;;;;;2144835;66;20063;-80
2022/04/02 11:17:53;;;;;;;;;;;10.30;65.90;;;;;;2143884;66;20137;-79
2022/04/02 11:20:34;;;;;;;;;;;10.00;63.60;;;;;;2127119;67;20198;-79
2022/04/02 11:23:39;;;;;;;;;;;9.60;62.90;;;;;;2123077;67;20784;-79
2022/04/02 11:26:22;;;;;;;;;;;9.70;64.80;;;;;;2124497;67;20338;-79
2022/04/02 11:29:03;;;;;;;;;;;10.30;60.30;;;;;;2132120;67;20055;-78
2022/04/02 11:31:47;;;;;;;;;;;11.20;63.70;;;;;;2125198;67;20135;-80
2022/04/02 11:34:51;;;;;;;;;;;12.00;61.90;;;;;;2132244;67;20185;-79
2022/04/02 11:37:35;;;;;;;;;;;12.50;62.20;;;;;;2120111;67;20206;-79
2022/04/02 11:40:18;;;;;;;;;;;12.10;58.00;;;;;;2123552;67;20105;-80
2022/04/02 11:43:00;;;;;;;;;;;11.50;57.50;;;;;;2131736;67;20252;-79
2022/04/02 11:45:42;;;;;;;;;;;11.20;57.90;;;;;;2134493;66;20409;-80
2022/04/02 11:48:27;;;;;;;;;;;10.90;57.10;;;;;;2137570;67;20202;-78
2022/04/02 11:51:15;;;;;;;;;;;10.60;55.00;;;;;;2136649;67;20197;-80
2022/04/02 11:54:04;;;;;;;;;;;10.30;56.50;;;;;;2127620;67;20119;-79
2022/04/02 11:56:47;;;;;;;;;;;10.00;57.60;;;;;;2117255;67;20756;-79
2022/04/02 11:59:30;;;;;;;;;;;10.00;58.80;;;;;;2105127;67;20295;-81
2022/04/02 12:02:32;;;;;;;;;;;10.10;61.90;;;;;;2105384;67;20170;-80
2022/04/02 12:05:16;;;;;;;;;;;10.60;62.60;;;;;;2096449;68;20052;-80
2022/04/02 12:07:58;;;;;;;;;;;10.80;62.60;;;;;;2096841;68;20146;-80
2022/04/02 12:11:04;;;;;;;;;;;10.70;61.00;;;;;;2083174;68;20214;-80
2022/04/02 12:13:56;;;;;;;;;;;10.50;62.10;;;;;;2083319;68;20069;-80
2022/04/02 12:16:43;;;;;;;;;;;10.40;60.70;;;;;;2069549;69;20171;-80
2022/04/02 12:19:38;;;;;;;;;;;10.20;56.90;;;;;;2069186;69;20301;-80
2022/04/02 12:22:31;;;;;;;;;;;9.90;59.50;;;;;;2076274;68;20074;-79
2022/04/02 12:25:19;;;;;;;;;;;9.60;57.80;;;;;;2087163;68;20127;-79
2022/04/02 12:28:07;;;;;;;;;;;9.30;57.80;;;;;;2090087;68;20245;-80
2022/04/02 12:30:51;;;;;;;;;;;9.20;58.70;;;;;;2083174;68;20234;-80
2022/04/02 12:33:33;;;;;;;;;;;9.20;59.50;;;;;;2089782;68;20200;-80
2022/04/02 12:36:15;;;;;;;;;;;9.20;60.00;;;;;;2083085;68;20123;-80
2022/04/02 12:39:19;;;;;;;;;;;9.40;59.70;;;;;;2089848;68;20493;-80
2022/04/02 12:42:01;;;;;;;;;;;9.50;59.90;;;;;;2088281;68;20257;-79
2022/04/02 12:44:44;;;;;;;;;;;9.50;60.00;;;;;;2097798;67;20138;-78
2022/04/02 12:47:26;;;;;;;;;;;9.40;57.30;;;;;;2116755;67;20085;-78
2022/04/02 12:50:15;;;;;;;;;;;9.70;56.90;;;;;;2104322;67;20050;-80
2022/04/02 12:52:57;;;;;;;;;;;9.90;56.00;;;;;;2102960;68;20463;-80
2022/04/02 12:55:38;;;;;;;;;;;10.10;59.60;;;;;;2104048;68;20051;-80
2022/04/02 12:58:29;;;;;;;;;;;10.90;56.20;;;;;;2130351;67;20075;-80
2022/04/02 13:01:13;;;;;;;;;;;12.30;54.90;;;;;;2134012;67;20071;-82
2022/04/02 13:03:59;;;;;;;;;;;14.10;51.70;;;;;;2132036;67;20160;-81
2022/04/02 13:06:40;;;;;;;;;;;15.30;50.20;;;;;;2133262;67;20304;-80
2022/04/02 13:09:22;;;;;;;;;;;15.80;51.90;;;;;;2133389;67;20420;-80
2022/04/02 13:12:04;;;;;;;;;;;16.40;49.00;;;;;;2126729;67;27761;-80
2022/04/02 13:14:50;;;;;;;;;;;17.60;50.40;;;;;;2133393;67;20056;-79
2022/04/02 13:20:28;;;;;;;;;;;18.60;45.40;;;;;;2122134;67;20774;-79
2022/04/02 13:20:44;;;;;;;;;;;19.30;46.10;;;;;;2131200;67;20099;-82
2022/04/02 13:23:49;;;;;;;;;;;19.90;45.50;;;;;;2123140;67;20540;-82
2022/04/02 13:26:36;;;;;;;;;;;20.70;43.50;;;;;;2113275;67;20097;-79
2022/04/02 13:29:22;;;;;;;;;;;19.80;40.40;;;;;;2106836;67;20579;-81
2022/04/02 13:32:11;;;;;;;;;;;19.10;42.70;;;;;;2094460;68;20075;-81
2022/04/02 13:35:06;;;;;;;;;;;20.00;42.90;;;;;;2098286;67;20246;-80
2022/04/02 13:38:02;;;;;;;;;;;20.00;38.80;;;;;;2105807;67;20069;-80
2022/04/02 13:40:46;;;;;;;;;;;18.30;42.00;;;;;;2095604;68;20110;-81
2022/04/02 13:43:29;;;;;;;;;;;16.70;43.00;;;;;;2111747;67;20081;-81
2022/04/02 13:46:13;;;;;;;;;;;17.00;44.20;;;;;;2109010;67;20143;-82
2022/04/02 13:48:55;;;;;;;;;;;18.30;44.30;;;;;;2111119;67;20054;-81
2022/04/02 13:51:52;;;;;;;;;;;19.80;43.40;;;;;;2106016;67;20058;-80
2022/04/02 13:54:30;;;;;;;;;;;19.90;41.20;;;;;;2101672;68;20075;-82
2022/04/02 13:57:06;;;;;;;;;;;19.40;42.00;;;;;;2097814;68;20055;-81
2022/04/02 13:59:54;;;;;;;;;;;20.30;41.50;;;;;;2097952;68;20080;-82
2022/04/02 14:02:46;;;;;;;;;;;20.30;38.70;;;;;;2111534;67;20287;-81
2022/04/02 14:05:22;;;;;;;;;;;19.00;37.10;;;;;;2124851;67;20582;-81
2022/04/02 14:08:19;;;;;;;;;;;19.40;38.00;;;;;;2134733;66;20097;-81
2022/04/02 14:11:00;;;;;;;;;;;20.70;39.90;;;;;;2146191;66;20520;-82
2022/04/02 14:14:19;;;;;;;;;;;20.20;36.90;;;;;;2151175;66;20117;-82
2022/04/02 14:17:14;;;;;;;;;;;19.40;37.90;;;;;;2140413;66;20066;-82
2022/04/02 14:20:00;;;;;;;;;;;17.80;39.20;;;;;;2152479;65;20049;-81
2022/04/02 14:22:50;;;;;;;;;;;18.00;41.30;;;;;;2168256;65;20049;-82
2022/04/02 14:25:46;;;;;;;;;;;18.10;40.50;;;;;;2162470;66;20609;-82
2022/04/02 14:28:40;;;;;;;;;;;17.00;39.50;;;;;;2164946;66;20142;-81
2022/04/02 14:31:18;;;;;;;;;;;17.50;41.20;;;;;;2164571;66;20045;-82
2022/04/02 14:33:53;;;;;;;;;;;18.80;39.30;;;;;;2164359;66;20217;-81
2022/04/02 14:36:35;;;;;;;;;;;19.10;38.50;;;;;;2163192;66;20102;-81
2022/04/02 14:39:33;;;;;;;;;;;17.80;37.60;;;;;;2162895;66;20208;-82
2022/04/02 14:42:11;;;;;;;;;;;16.40;39.60;;;;;;2162969;66;20138;-80
2022/04/02 14:45:15;;;;;;;;;;;16.00;40.90;;;;;;2183468;65;20050;-80
2022/04/02 14:48:19;;;;;;;;;;;17.10;41.00;;;;;;2171731;65;20059;-81
2022/04/02 14:51:09;;;;;;;;;;;17.40;38.90;;;;;;2176173;65;20127;-81
2022/04/02 14:54:03;;;;;;;;;;;16.90;37.90;;;;;;2183257;65;20074;-82
2022/04/02 14:57:03;;;;;;;;;;;16.30;39.90;;;;;;2179769;65;20056;-81
2022/04/02 14:59:44;;;;;;;;;;;16.60;41.70;;;;;;2172061;65;20060;-79
2022/04/02 15:02:43;;;;;;;;;;;16.90;40.50;;;;;;2163239;66;20053;-80
2022/04/02 15:05:43;;;;;;;;;;;17.00;40.90;;;;;;2158461;65;20198;-80
2022/04/02 15:08:40;;;;;;;;;;;16.50;39.50;;;;;;2170487;65;20120;-81
2022/04/02 15:11:23;;;;;;;;;;;15.90;38.90;;;;;;2154535;66;20083;-81
2022/04/02 15:14:13;;;;;;;;;;;15.40;38.70;;;;;;2163047;66;20100;-80
2022/04/02 15:17:35;;;;;;;;;;;14.50;39.70;;;;;;2170448;66;20133;-81
2022/04/02 15:20:21;;;;;;;;;;;13.90;39.70;;;;;;2170105;66;20123;-81
2022/04/02 15:23:12;;;;;;;;;;;13.50;41.10;;;;;;2161988;66;20560;-81
2022/04/02 15:25:57;;;;;;;;;;;13.00;40.10;;;;;;2166114;66;20096;-81
2022/04/02 15:28:38;;;;;;;;;;;12.70;41.00;;;;;;2147631;66;20588;-83
2022/04/02 15:31:51;;;;;;;;;;;12.20;41.50;;;;;;2156171;66;20157;-82
2022/04/02 15:34:51;;;;;;;;;;;11.60;42.70;;;;;;2152254;66;20207;-81
2022/04/02 15:37:40;;;;;;;;;;;11.10;43.40;;;;;;2132158;67;20114;-80
2022/04/02 15:40:22;;;;;;;;;;;10.90;44.20;;;;;;2139154;66;20091;-81
2022/04/02 15:43:11;;;;;;;;;;;10.90;44.90;;;;;;2124970;67;20056;-82
2022/04/02 15:45:53;;;;;;;;;;;10.70;44.90;;;;;;2123569;67;20194;-82
2022/04/02 15:48:53;;;;;;;;;;;11.00;45.30;;;;;;2132348;67;20074;-82
2022/04/02 15:51:34;;;;;;;;;;;11.80;44.70;;;;;;2133590;67;20154;-82
2022/04/02 15:54:33;;;;;;;;;;;12.50;45.10;;;;;;2135730;66;20256;-81
2022/04/02 15:57:18;;;;;;;;;;;13.40;42.70;;;;;;2138833;66;20207;-80
2022/04/02 16:00:02;;;;;;;;;;;13.80;41.60;;;;;;2139584;66;20200;-81
2022/04/02 16:02:44;;;;;;;;;;;14.00;42.40;;;;;;2130625;67;20077;-82
2022/04/02 16:05:31;;;;;;;;;;;14.80;43.30;;;;;;2143866;66;20071;-80
2022/04/02 16:08:20;;;;;;;;;;;15.90;41.70;;;;;;2146487;66;20164;-81
2022/04/02 16:11:31;;;;;;;;;;;17.10;40.80;;;;;;2134568;67;20074;-81
2022/04/02 16:14:14;;;;;;;;;;;17.60;38.10;;;;;;2110802;67;20076;-81
2022/04/02 16:17:00;;;;;;;;;;;17.60;36.00;;;;;;2106044;67;20653;-80
2022/04/02 16:19:44;;;;;;;;;;;17.10;38.70;;;;;;2095373;68;20570;-81